Time;durP1;ratioP1;P1;durP2;ratioP2;P2;SDS_P1;SDS_P2;PMS_P1;PMS_P2;Temp;Humidity;BMP_temperature;BMP_pressure;BME280_temperature;BME280_humidity;BME280_pressure;Samples;Min_cycle;Max_cycle;Signal;HPM_P1;HPM_P2
2021/12/12 00:00:06;;;;;;;93.95;43.95;;;3.70;99.90;;;;;;5072136;28;20043;-57
2021/12/12 00:03:21;;;;;;;99.13;45.50;;;3.70;99.90;;;;;;5070831;28;20146;-57
2021/12/12 00:05:21;;;;;;;95.07;41.53;;;3.70;99.90;;;;;;5064654;28;20047;-58
2021/12/12 00:07:47;;;;;;;88.75;42.83;;;3.80;99.90;;;;;;5074036;28;20035;-57
2021/12/12 00:10:22;;;;;;;83.75;41.30;;;3.80;99.90;;;;;;5070980;28;20059;-58
2021/12/12 00:12:52;;;;;;;90.30;42.05;;;3.80;99.90;;;;;;5073916;28;20059;-58
2021/12/12 00:15:19;;;;;;;82.03;40.83;;;3.80;99.90;;;;;;5073055;28;20043;-58
2021/12/12 00:17:47;;;;;;;94.00;39.67;;;3.70;99.90;;;;;;5072986;28;20032;-57
2021/12/12 00:20:17;;;;;;;92.65;41.83;;;3.70;99.90;;;;;;5072165;28;20048;-57
2021/12/12 00:22:43;;;;;;;84.50;38.95;;;3.80;99.90;;;;;;5055430;28;20356;-55
2021/12/12 00:25:11;;;;;;;91.63;41.20;;;3.80;99.90;;;;;;5072161;28;20172;-58
2021/12/12 00:27:38;;;;;;;87.20;38.75;;;3.70;99.90;;;;;;5070752;28;20240;-58
2021/12/12 00:30:09;;;;;;;83.22;37.63;;;3.80;99.90;;;;;;5076122;28;20582;-58
2021/12/12 00:32:37;;;;;;;88.20;38.45;;;3.80;99.90;;;;;;5068922;28;20040;-57
2021/12/12 00:35:07;;;;;;;100.80;41.15;;;3.80;99.90;;;;;;5054057;28;22507;-58
2021/12/12 00:37:33;;;;;;;81.50;38.15;;;3.80;99.90;;;;;;5076460;28;20522;-58
2021/12/12 00:40:07;;;;;;;81.68;37.20;;;3.80;99.90;;;;;;5073538;28;20058;-58
2021/12/12 00:42:38;;;;;;;87.05;38.58;;;3.80;99.90;;;;;;5075580;28;20706;-58
2021/12/12 00:45:12;;;;;;;83.60;38.75;;;4.10;99.90;;;;;;5078069;28;20123;-58
2021/12/12 00:47:39;;;;;;;84.95;38.15;;;4.00;99.90;;;;;;5075639;28;20397;-58
2021/12/12 00:50:12;;;;;;;86.47;37.70;;;3.90;99.90;;;;;;5075360;28;20043;-58
2021/12/12 00:52:41;;;;;;;85.43;36.80;;;3.90;99.90;;;;;;5077903;28;20044;-57
2021/12/12 00:55:07;;;;;;;79.72;36.63;;;3.90;99.90;;;;;;5078233;28;20130;-58
2021/12/12 00:57:34;;;;;;;75.93;36.28;;;3.80;99.90;;;;;;5078149;28;20386;-58
2021/12/12 01:00:00;;;;;;;78.03;36.13;;;3.90;99.90;;;;;;5060965;28;20054;-58
2021/12/12 01:02:30;;;;;;;81.55;36.90;;;3.90;99.90;;;;;;5077110;28;20044;-58
2021/12/12 01:05:00;;;;;;;75.85;36.88;;;3.90;99.90;;;;;;5076050;28;20098;-58
2021/12/12 01:07:30;;;;;;;86.20;38.00;;;3.90;99.90;;;;;;5074361;28;20047;-58
2021/12/12 01:10:13;;;;;;;93.35;38.33;;;3.90;99.90;;;;;;5056275;28;20090;-59
2021/12/12 01:12:39;;;;;;;80.65;36.22;;;3.90;99.90;;;;;;5058809;28;20051;-58
2021/12/12 01:15:21;;;;;;;77.05;37.38;;;4.20;99.90;;;;;;5055866;28;20036;-57
2021/12/12 01:17:52;;;;;;;81.22;37.95;;;3.90;99.90;;;;;;5053643;28;20040;-57
2021/12/12 01:20:31;;;;;;;75.22;35.00;;;3.90;99.90;;;;;;5057575;28;20044;-58
2021/12/12 01:23:04;;;;;;;85.45;37.97;;;3.90;99.90;;;;;;5040182;28;20071;-58
2021/12/12 01:25:35;;;;;;;82.57;35.35;;;4.00;99.90;;;;;;5055721;28;20040;-57
2021/12/12 01:28:03;;;;;;;73.15;34.25;;;3.90;99.90;;;;;;5053866;28;20052;-57
2021/12/12 01:30:30;;;;;;;77.82;35.78;;;3.90;99.90;;;;;;5054980;28;20046;-58
2021/12/12 01:32:56;;;;;;;76.38;34.03;;;4.00;99.90;;;;;;5057043;28;20051;-58
2021/12/12 01:35:23;;;;;;;74.20;34.08;;;4.00;99.90;;;;;;5056856;28;20170;-58
2021/12/12 01:40:53;;;;;;;85.95;35.97;;;4.00;99.90;;;;;;5056391;28;20312;-57
2021/12/12 01:43:37;;;;;;;81.25;35.28;;;4.00;99.90;;;;;;5052690;28;20054;-57
2021/12/12 01:46:07;;;;;;;81.93;34.72;;;4.90;99.90;;;;;;5057492;28;20044;-58
2021/12/12 01:48:41;;;;;;;73.82;33.30;;;4.00;99.90;;;;;;5056823;28;20029;-58
2021/12/12 01:51:09;;;;;;;67.13;33.55;;;3.60;99.90;;;;;;5053088;28;20094;-58
2021/12/12 01:53:41;;;;;;;79.93;33.85;;;4.10;99.90;;;;;;5052154;28;20098;-58
2021/12/12 01:56:18;;;;;;;70.20;33.20;;;4.10;99.90;;;;;;5056939;28;20486;-58
2021/12/12 01:58:47;;;;;;;78.50;35.47;;;4.10;99.90;;;;;;5054965;28;20084;-58
2021/12/12 02:01:22;;;;;;;69.63;33.78;;;4.10;99.90;;;;;;5054888;28;20040;-58
2021/12/12 02:03:58;;;;;;;69.38;34.78;;;4.10;99.90;;;;;;5043481;28;20607;-58
2021/12/12 02:06:24;;;;;;;82.68;33.80;;;4.10;99.90;;;;;;5053435;28;21083;-58
2021/12/12 02:08:52;;;;;;;73.43;32.92;;;4.10;99.90;;;;;;5055152;28;20048;-58
2021/12/12 02:11:28;;;;;;;65.65;29.60;;;4.10;99.90;;;;;;5072983;28;20048;-58
2021/12/12 02:13:57;;;;;;;71.90;32.30;;;4.30;99.90;;;;;;5076012;28;20040;-58
2021/12/12 02:16:25;;;;;;;71.60;32.28;;;4.20;99.90;;;;;;5078125;28;20120;-58
2021/12/12 02:18:55;;;;;;;67.32;31.02;;;4.20;99.90;;;;;;5056130;28;22285;-58
2021/12/12 02:21:29;;;;;;;70.10;31.95;;;4.20;99.90;;;;;;5075754;28;20551;-58
2021/12/12 02:35:11;;;;;;;64.43;29.55;;;4.10;99.90;;;;;;5074570;28;20048;-57
2021/12/12 02:37:37;;;;;;;73.03;30.83;;;4.10;99.90;;;;;;5076256;28;20328;-57
2021/12/12 02:40:12;;;;;;;67.15;30.45;;;4.20;99.90;;;;;;5075196;28;20036;-58
2021/12/12 02:42:39;;;;;;;66.68;29.88;;;4.20;99.90;;;;;;5074539;28;20043;-57
2021/12/12 02:45:08;;;;;;;62.13;27.60;;;4.20;99.90;;;;;;5076425;28;20578;-58
2021/12/12 02:47:35;;;;;;;68.28;31.30;;;4.20;99.90;;;;;;5076660;28;20048;-59
2021/12/12 02:50:22;;;;;;;69.47;30.17;;;4.20;99.90;;;;;;5073812;28;20039;-58
2021/12/12 02:52:55;;;;;;;68.35;29.55;;;4.20;99.90;;;;;;5077734;28;20383;-58
2021/12/12 02:55:26;;;;;;;60.78;28.30;;;4.30;99.90;;;;;;5076109;28;20048;-57
2021/12/12 02:57:53;;;;;;;64.45;29.63;;;4.20;99.90;;;;;;5076211;28;20044;-58
2021/12/12 03:00:22;;;;;;;69.82;29.27;;;4.20;99.90;;;;;;5071578;28;20589;-58
2021/12/12 03:02:49;;;;;;;70.22;28.90;;;4.30;99.90;;;;;;5071369;28;20067;-58
2021/12/12 03:05:18;;;;;;;56.75;28.63;;;4.20;99.90;;;;;;5055688;28;20052;-58
2021/12/12 03:07:45;;;;;;;65.60;30.27;;;4.30;99.90;;;;;;5062974;28;20051;-58
2021/12/12 03:10:15;;;;;;;63.83;28.02;;;4.30;99.90;;;;;;5072251;28;20058;-57
2021/12/12 03:12:41;;;;;;;61.55;27.55;;;4.30;99.90;;;;;;5073838;28;20700;-58
2021/12/12 03:15:18;;;;;;;60.63;27.45;;;4.30;99.90;;;;;;5074837;28;20048;-58
2021/12/12 03:17:46;;;;;;;65.07;28.13;;;4.30;99.90;;;;;;5074386;28;20039;-58
2021/12/12 03:20:34;;;;;;;72.72;29.95;;;4.30;99.90;;;;;;5056056;28;20052;-58
2021/12/12 03:23:06;;;;;;;67.55;27.95;;;4.30;99.90;;;;;;5072235;28;20126;-58
2021/12/12 03:25:35;;;;;;;62.42;26.90;;;4.30;99.90;;;;;;5075987;28;20044;-58
2021/12/12 03:28:01;;;;;;;62.47;27.40;;;4.30;99.90;;;;;;5062350;28;20120;-58
2021/12/12 03:30:27;;;;;;;55.60;26.85;;;4.30;99.90;;;;;;5059636;28;20434;-58
2021/12/12 03:32:53;;;;;;;71.60;28.60;;;4.30;99.90;;;;;;5082811;28;20043;-58
2021/12/12 03:35:19;;;;;;;66.32;29.50;;;4.30;99.90;;;;;;5111792;28;20471;-58
2021/12/12 03:37:45;;;;;;;65.93;28.92;;;4.30;99.90;;;;;;5109892;28;20501;-58
2021/12/12 03:40:24;;;;;;;65.20;28.70;;;4.30;99.90;;;;;;5108323;28;20043;-59
2021/12/12 03:42:52;;;;;;;64.38;27.30;;;4.30;99.90;;;;;;5110060;28;20487;-58
2021/12/12 03:45:18;;;;;;;62.85;27.92;;;4.40;99.90;;;;;;5110208;28;20035;-58
2021/12/12 03:47:52;;;;;;;62.97;29.42;;;4.40;99.90;;;;;;5111812;28;20083;-59
2021/12/12 03:50:23;;;;;;;68.05;28.60;;;4.30;99.90;;;;;;5108720;28;20035;-58
2021/12/12 03:52:50;;;;;;;68.40;29.23;;;4.40;99.90;;;;;;5110194;28;20031;-58
2021/12/12 03:55:16;;;;;;;62.28;28.00;;;4.40;99.90;;;;;;5111140;28;20035;-56
2021/12/12 03:57:42;;;;;;;67.10;29.40;;;4.30;99.90;;;;;;5075192;28;20391;-58
2021/12/12 04:00:14;;;;;;;68.40;30.90;;;4.40;99.90;;;;;;5106709;28;20040;-58
2021/12/12 04:02:40;;;;;;;63.95;28.38;;;4.40;99.90;;;;;;5107909;28;20031;-58
2021/12/12 04:05:07;;;;;;;65.63;28.67;;;4.40;99.90;;;;;;5109533;28;20459;-58
2021/12/12 04:07:34;;;;;;;59.55;26.85;;;4.40;99.90;;;;;;5111573;28;20035;-58
2021/12/12 04:10:00;;;;;;;53.28;28.08;;;4.50;99.90;;;;;;5107598;28;20082;-58
2021/12/12 04:12:28;;;;;;;65.18;29.70;;;4.40;99.90;;;;;;5110954;28;20079;-58
2021/12/12 04:14:56;;;;;;;62.03;28.58;;;4.70;99.90;;;;;;5109229;28;20479;-58
2021/12/12 04:17:24;;;;;;;62.80;29.92;;;4.40;99.90;;;;;;5110930;28;20123;-58
2021/12/12 04:19:53;;;;;;;73.03;29.55;;;4.50;99.90;;;;;;5105521;28;20106;-58
2021/12/12 04:22:19;;;;;;;62.53;30.40;;;4.50;99.90;;;;;;5110738;28;20115;-58
2021/12/12 04:24:49;;;;;;;67.10;30.02;;;4.50;99.90;;;;;;5075283;28;20118;-57
2021/12/12 04:27:16;;;;;;;61.45;26.45;;;4.50;99.90;;;;;;5109524;28;20432;-58
2021/12/12 04:29:45;;;;;;;58.53;25.02;;;4.60;99.90;;;;;;5089135;28;20104;-58
2021/12/12 04:32:14;;;;;;;60.22;28.67;;;4.70;99.90;;;;;;5092340;28;20490;-58
2021/12/12 04:34:44;;;;;;;58.47;27.80;;;4.60;99.90;;;;;;5110240;28;20048;-59
2021/12/12 04:37:11;;;;;;;62.53;28.35;;;4.60;99.90;;;;;;5111201;28;20410;-58
2021/12/12 04:39:40;;;;;;;53.70;26.25;;;4.70;99.90;;;;;;5105308;28;20043;-58
2021/12/12 04:42:16;;;;;;;57.50;26.85;;;4.70;99.90;;;;;;5111179;28;20548;-58
2021/12/12 04:44:45;;;;;;;46.55;23.63;;;4.70;99.90;;;;;;5105158;28;20031;-58
2021/12/12 04:50:17;;;;;;;54.25;25.70;;;4.80;99.90;;;;;;5106854;28;20478;-58
2021/12/12 04:52:52;;;;;;;54.28;25.75;;;4.80;99.90;;;;;;5110884;28;20044;-58
2021/12/12 04:55:25;;;;;;;46.72;24.30;;;4.80;99.90;;;;;;5108766;28;20081;-58
2021/12/12 04:57:55;;;;;;;48.17;24.00;;;4.80;99.90;;;;;;5109348;28;20035;-58
2021/12/12 05:00:28;;;;;;;46.95;23.73;;;5.00;99.90;;;;;;5108543;28;20043;-58
2021/12/12 05:03:18;;;;;;;46.33;22.67;;;4.90;99.90;;;;;;5109829;28;20132;-59
2021/12/12 05:06:00;;;;;;;41.15;23.67;;;4.90;99.90;;;;;;5089046;28;20043;-58
2021/12/12 05:08:33;;;;;;;44.22;23.20;;;4.90;99.90;;;;;;5108067;28;20039;-58
2021/12/12 05:11:05;;;;;;;40.38;22.40;;;4.90;99.90;;;;;;5091829;28;20054;-58
2021/12/12 05:13:42;;;;;;;39.28;21.67;;;4.90;99.90;;;;;;5084924;28;20482;-58
2021/12/12 05:16:13;;;;;;;37.10;20.33;;;4.90;99.90;;;;;;5109274;28;20042;-58
2021/12/12 05:18:49;;;;;;;38.05;19.92;;;5.00;99.90;;;;;;5106775;28;20079;-58
2021/12/12 05:21:23;;;;;;;41.25;21.42;;;5.40;99.90;;;;;;5110886;28;20035;-58
2021/12/12 05:23:51;;;;;;;43.28;22.08;;;5.00;99.90;;;;;;5109599;28;21911;-59
2021/12/12 05:26:25;;;;;;;40.67;21.52;;;5.30;99.90;;;;;;5114474;28;20155;-58
2021/12/12 05:28:59;;;;;;;39.33;21.10;;;5.00;99.90;;;;;;5109333;28;20452;-58
2021/12/12 05:31:25;;;;;;;;;;;5.10;99.90;;;;;;5095997;28;20032;-58
2021/12/12 05:33:52;;;;;;;39.38;21.05;;;5.00;99.90;;;;;;5109967;28;20307;-57
2021/12/12 05:36:20;;;;;;;46.30;23.13;;;5.60;99.90;;;;;;5114201;28;20046;-58
2021/12/12 05:38:48;;;;;;;39.33;21.30;;;5.10;99.90;;;;;;5112422;28;20522;-59
2021/12/12 05:41:18;;;;;;;41.53;23.00;;;5.00;99.90;;;;;;5096018;28;20394;-58
2021/12/12 05:43:48;;;;;;;40.83;22.33;;;5.10;99.90;;;;;;5111250;28;20044;-57
2021/12/12 05:46:18;;;;;;;42.30;22.52;;;5.10;99.90;;;;;;5076265;28;20040;-58
2021/12/12 05:48:45;;;;;;;42.90;22.23;;;5.10;99.90;;;;;;5113918;28;20045;-57
2021/12/12 05:51:11;;;;;;;41.00;22.33;;;5.10;99.90;;;;;;5110894;28;20479;-58
2021/12/12 05:53:37;;;;;;;41.50;22.38;;;5.10;99.90;;;;;;5114223;28;20038;-58
2021/12/12 05:56:03;;;;;;;39.47;23.15;;;5.10;99.90;;;;;;5091579;28;20172;-59
2021/12/12 05:58:30;;;;;;;44.15;23.70;;;5.20;99.90;;;;;;5089402;28;20042;-57
2021/12/12 06:00:59;;;;;;;37.28;20.45;;;5.20;99.90;;;;;;5090128;28;20041;-58
2021/12/12 06:03:29;;;;;;;36.75;21.38;;;5.20;99.90;;;;;;5111931;28;20110;-59
2021/12/12 06:05:58;;;;;;;48.78;22.52;;;5.20;99.90;;;;;;5110588;28;20031;-58
2021/12/12 06:08:26;;;;;;;38.65;21.52;;;5.20;99.90;;;;;;5113882;28;20032;-58
2021/12/12 06:10:54;;;;;;;43.90;22.38;;;5.20;99.90;;;;;;5111531;28;20456;-58
2021/12/12 06:13:21;;;;;;;49.67;24.77;;;5.30;99.90;;;;;;5111744;28;20055;-58
2021/12/12 06:15:51;;;;;;;38.05;20.60;;;5.30;99.90;;;;;;5090181;28;20048;-58
2021/12/12 06:18:19;;;;;;;41.95;22.85;;;5.30;99.90;;;;;;5095027;28;20136;-58
2021/12/12 06:20:46;;;;;;;43.22;22.40;;;5.30;99.90;;;;;;5111251;28;20387;-58
2021/12/12 06:23:13;;;;;;;39.35;21.33;;;5.40;99.90;;;;;;5113753;28;20038;-58
2021/12/12 06:25:39;;;;;;;48.78;23.92;;;5.40;99.90;;;;;;5108897;28;20044;-58
2021/12/12 06:28:10;;;;;;;43.47;22.15;;;5.40;99.90;;;;;;5110986;28;20491;-58
2021/12/12 06:30:36;;;;;;;41.58;22.50;;;5.40;99.90;;;;;;5111490;28;20058;-58
2021/12/12 06:33:04;;;;;;;47.90;23.33;;;5.40;99.90;;;;;;5112010;28;20047;-57
2021/12/12 06:35:30;;;;;;;46.05;23.30;;;5.40;99.90;;;;;;5094827;28;20462;-58
2021/12/12 06:38:04;;;;;;;46.03;23.55;;;5.40;99.90;;;;;;5112100;28;20031;-58
2021/12/12 06:40:31;;;;;;;50.30;23.42;;;5.50;99.90;;;;;;5112056;28;20036;-58
2021/12/12 06:43:00;;;;;;;48.13;24.20;;;5.50;99.90;;;;;;5074733;28;20039;-58
2021/12/12 06:45:26;;;;;;;49.92;24.05;;;5.50;99.90;;;;;;5110451;28;20413;-57
2021/12/12 06:47:54;;;;;;;53.80;24.92;;;5.50;99.90;;;;;;5094590;28;20049;-58
2021/12/12 06:50:20;;;;;;;48.17;23.83;;;5.50;99.90;;;;;;5091514;28;20200;-58
2021/12/12 06:52:47;;;;;;;60.05;26.25;;;5.60;99.90;;;;;;5112651;28;20479;-58
2021/12/12 06:55:13;;;;;;;53.03;25.00;;;5.60;99.90;;;;;;5092416;28;20047;-59
2021/12/12 06:57:39;;;;;;;53.42;25.50;;;5.60;99.90;;;;;;5112476;28;20092;-58
2021/12/12 07:00:11;;;;;;;58.90;26.40;;;5.60;99.90;;;;;;5100282;28;20042;-58
2021/12/12 07:02:39;;;;;;;55.33;24.50;;;5.60;99.90;;;;;;5109708;28;20080;-58
2021/12/12 07:05:06;;;;;;;54.85;23.60;;;5.60;99.90;;;;;;5109005;28;20046;-58
2021/12/12 07:07:33;;;;;;;66.82;26.30;;;5.60;99.90;;;;;;5112349;28;20063;-58
2021/12/12 07:09:59;;;;;;;54.15;24.20;;;5.60;99.90;;;;;;5111325;28;21351;-59
2021/12/12 07:12:25;;;;;;;70.38;26.70;;;5.60;99.90;;;;;;5112704;28;20100;-57
2021/12/12 07:14:53;;;;;;;51.33;23.63;;;5.60;99.90;;;;;;5096831;28;20048;-58
2021/12/12 07:17:21;;;;;;;77.35;28.80;;;5.70;99.90;;;;;;5112039;28;20084;-58
2021/12/12 07:19:47;;;;;;;75.35;28.15;;;5.70;99.90;;;;;;5092490;28;20044;-58
2021/12/12 07:22:14;;;;;;;82.28;29.73;;;5.70;99.90;;;;;;5112225;28;20035;-59
2021/12/12 07:24:42;;;;;;;80.30;31.83;;;5.80;99.90;;;;;;5108185;28;20382;-59
2021/12/12 07:27:09;;;;;;;86.72;31.00;;;5.80;99.90;;;;;;5106602;28;20035;-58
2021/12/12 07:29:34;;;;;;;100.15;33.70;;;5.80;99.90;;;;;;5102447;28;20122;-58
2021/12/12 07:32:01;;;;;;;103.80;34.45;;;5.90;99.90;;;;;;5109780;28;20122;-58
2021/12/12 07:34:28;;;;;;;95.60;33.75;;;5.90;99.90;;;;;;5109894;28;20513;-59
2021/12/12 07:36:59;;;;;;;108.95;35.25;;;6.00;99.90;;;;;;5112000;28;20414;-58
2021/12/12 07:39:27;;;;;;;100.95;33.72;;;5.90;99.90;;;;;;5107767;28;20040;-58
2021/12/12 07:41:57;;;;;;;93.45;32.75;;;6.00;99.90;;;;;;5077094;28;20036;-58
2021/12/12 07:44:27;;;;;;;114.45;36.05;;;6.00;99.90;;;;;;5104216;28;20023;-58
2021/12/12 07:46:54;;;;;;;112.38;37.30;;;6.00;99.90;;;;;;5110834;28;20036;-58
2021/12/12 07:49:23;;;;;;;86.97;32.58;;;6.00;99.90;;;;;;5101715;28;20035;-58
2021/12/12 07:51:49;;;;;;;84.80;31.80;;;6.10;99.90;;;;;;5110539;28;20032;-58
2021/12/12 07:54:16;;;;;;;115.95;35.63;;;6.10;99.90;;;;;;5109579;28;20104;-58
2021/12/12 07:56:44;;;;;;;102.38;33.55;;;6.10;99.90;;;;;;5111354;28;20075;-58
2021/12/12 07:59:10;;;;;;;107.50;35.88;;;6.10;99.90;;;;;;5107808;28;20048;-58
2021/12/12 08:01:39;;;;;;;114.10;36.13;;;6.10;99.90;;;;;;5104751;28;20742;-57
2021/12/12 08:04:09;;;;;;;113.20;37.17;;;6.10;99.90;;;;;;5108543;28;20032;-59
2021/12/12 08:06:36;;;;;;;107.82;35.72;;;6.10;99.90;;;;;;5075969;28;20039;-59
2021/12/12 08:09:04;;;;;;;113.63;36.67;;;6.10;99.90;;;;;;5109089;28;20131;-59
2021/12/12 08:11:33;;;;;;;123.13;37.28;;;6.20;99.90;;;;;;5092548;28;20063;-58
2021/12/12 08:14:01;;;;;;;122.93;37.00;;;6.20;99.90;;;;;;5103442;28;20491;-58
2021/12/12 08:16:27;;;;;;;123.80;37.55;;;6.20;99.90;;;;;;5108954;28;20043;-58
2021/12/12 08:18:55;;;;;;;129.55;37.83;;;6.20;99.90;;;;;;5108003;28;20122;-58
2021/12/12 08:21:22;;;;;;;122.30;37.53;;;6.20;99.90;;;;;;5111276;28;20047;-58
2021/12/12 08:23:48;;;;;;;130.40;38.25;;;6.30;99.90;;;;;;5108331;28;20446;-58
2021/12/12 08:26:14;;;;;;;114.78;36.65;;;6.30;99.90;;;;;;5109847;28;20035;-58
2021/12/12 08:28:42;;;;;;;138.45;37.90;;;6.30;99.90;;;;;;5104227;28;20391;-58
2021/12/12 08:31:08;;;;;;;131.80;37.00;;;6.30;99.90;;;;;;5106107;28;20039;-57
2021/12/12 08:33:34;;;;;;;108.35;34.70;;;6.40;99.90;;;;;;5110756;28;20519;-58
2021/12/12 08:36:01;;;;;;;108.72;33.22;;;6.40;99.90;;;;;;5106624;28;20482;-57
2021/12/12 08:38:27;;;;;;;129.55;36.33;;;6.40;99.90;;;;;;5107497;28;20072;-58
2021/12/12 08:40:58;;;;;;;133.80;38.05;;;6.40;99.90;;;;;;5104712;28;20082;-58
2021/12/12 08:43:25;;;;;;;104.50;33.55;;;6.40;99.90;;;;;;5106418;28;20036;-57
2021/12/12 08:45:55;;;;;;;146.30;39.33;;;6.50;99.90;;;;;;5087862;28;20406;-58
2021/12/12 08:48:23;;;;;;;140.40;37.33;;;6.50;99.90;;;;;;5095826;28;20487;-58
2021/12/12 08:50:52;;;;;;;121.15;35.67;;;6.70;99.90;;;;;;5097167;28;20501;-58
2021/12/12 08:53:19;;;;;;;128.93;35.90;;;6.70;99.90;;;;;;5101225;28;20036;-58
2021/12/12 08:55:50;;;;;;;115.72;35.13;;;6.60;99.90;;;;;;5063040;28;20055;-58
2021/12/12 08:58:24;;;;;;;126.70;36.25;;;6.60;99.90;;;;;;5102517;28;20039;-58
2021/12/12 09:01:08;;;;;;;103.68;30.63;;;6.60;99.90;;;;;;5100957;28;20048;-58
2021/12/12 09:03:37;;;;;;;;;;;6.60;99.90;;;;;;5106035;28;20085;-59
2021/12/12 09:06:04;;;;;;;129.68;37.88;;;6.70;99.90;;;;;;5084892;28;19971;-58
2021/12/12 09:08:44;;;;;;;145.90;38.13;;;6.70;99.90;;;;;;5106473;28;20054;-59
2021/12/12 09:11:21;;;;;;;135.25;36.72;;;6.70;99.90;;;;;;5101690;28;20056;-56
2021/12/12 09:14:10;;;;;;;135.30;37.15;;;6.70;99.90;;;;;;5100745;28;20111;-57
2021/12/12 09:16:46;;;;;;;157.50;37.72;;;6.70;99.90;;;;;;5099575;28;20036;-57
2021/12/12 09:19:26;;;;;;;127.38;35.42;;;6.80;99.90;;;;;;5105687;28;20076;-57
2021/12/12 09:22:14;;;;;;;141.38;37.75;;;6.80;99.90;;;;;;5103848;28;20039;-56
2021/12/12 09:24:46;;;;;;;129.43;35.67;;;6.90;99.90;;;;;;5101492;28;20035;-57
2021/12/12 09:27:25;;;;;;;135.07;36.90;;;6.90;99.90;;;;;;5104218;28;20035;-57
2021/12/12 09:30:03;;;;;;;112.68;35.33;;;7.00;99.90;;;;;;5098332;28;20035;-58
2021/12/12 09:32:47;;;;;;;138.20;36.97;;;7.00;99.90;;;;;;5104907;28;20503;-57
2021/12/12 09:35:17;;;;;;;140.98;36.70;;;7.00;99.90;;;;;;5102116;28;20035;-58
2021/12/12 09:38:11;;;;;;;133.43;35.10;;;7.00;99.90;;;;;;5104902;28;20046;-58
2021/12/12 09:41:30;;;;;;;117.85;35.55;;;7.00;99.90;;;;;;5102060;28;20032;-58
2021/12/12 09:44:09;;;;;;;134.48;36.20;;;7.10;99.90;;;;;;5079476;28;20051;-60
2021/12/12 09:53:42;;;;;;;136.88;36.55;;;7.20;99.90;;;;;;5102157;28;20036;-58
2021/12/12 09:56:45;;;;;;;140.98;37.25;;;7.20;99.90;;;;;;5077936;28;20055;-58
2021/12/12 09:59:32;;;;;;;138.90;37.33;;;7.30;99.90;;;;;;5063369;28;20444;-59
2021/12/12 10:02:27;;;;;;;143.25;37.35;;;7.30;99.90;;;;;;5070886;28;20049;-58
2021/12/12 10:05:12;;;;;;;148.48;37.05;;;7.30;99.90;;;;;;5062150;28;20124;-58
2021/12/12 10:08:01;;;;;;;130.68;35.97;;;7.40;99.90;;;;;;5068449;28;20538;-57
2021/12/12 10:11:08;;;;;;;160.45;39.15;;;7.40;99.90;;;;;;5066262;28;20817;-59
2021/12/12 10:13:41;;;;;;;146.23;38.10;;;7.40;99.90;;;;;;5050318;28;20171;-58
2021/12/12 10:16:20;;;;;;;129.65;34.58;;;7.50;99.90;;;;;;5067229;28;20044;-58
2021/12/12 10:18:50;;;;;;;146.15;37.35;;;7.40;99.90;;;;;;5066469;28;20036;-59
2021/12/12 10:21:27;;;;;;;128.05;35.72;;;7.50;99.90;;;;;;5068831;28;20822;-58
2021/12/12 10:24:23;;;;;;;128.18;35.63;;;7.50;99.90;;;;;;5049698;28;20068;-58
2021/12/12 10:27:22;;;;;;;156.25;37.15;;;7.50;99.90;;;;;;5072552;28;20543;-58
2021/12/12 10:29:48;;;;;;;144.60;37.22;;;7.60;99.90;;;;;;5069040;28;20135;-58
2021/12/12 10:32:21;;;;;;;141.35;35.45;;;7.60;99.90;;;;;;5076729;28;20040;-58
2021/12/12 10:34:52;;;;;;;133.07;35.88;;;7.60;99.90;;;;;;5070500;28;20049;-58
2021/12/12 10:37:26;;;;;;;144.07;36.35;;;7.60;99.90;;;;;;5056687;28;20071;-59
2021/12/12 10:40:00;;;;;;;;;;;7.70;99.90;;;;;;5071471;28;20086;-58
2021/12/12 10:42:36;;;;;;;119.15;32.88;;;7.70;99.90;;;;;;5050376;28;20016;-58
2021/12/12 10:45:08;;;;;;;114.55;33.67;;;7.70;99.90;;;;;;5073607;28;20123;-58
2021/12/12 10:47:49;;;;;;;126.30;33.13;;;7.70;99.90;;;;;;5070795;28;20051;-58
2021/12/12 10:50:41;;;;;;;151.05;33.63;;;7.80;99.90;;;;;;5086477;27;20043;-58
2021/12/12 10:53:19;;;;;;;113.15;31.58;;;7.80;99.90;;;;;;5072787;28;20062;-58
2021/12/12 10:55:55;;;;;;;103.05;29.33;;;7.80;99.90;;;;;;5050217;28;20079;-58
2021/12/12 10:58:46;;;;;;;101.97;30.35;;;7.80;99.90;;;;;;5068707;28;20285;-58
2021/12/12 11:01:22;;;;;;;96.88;28.13;;;7.80;99.90;;;;;;5070397;28;20048;-57
2021/12/12 11:03:55;;;;;;;109.68;30.13;;;7.90;99.90;;;;;;5068146;28;20239;-57
2021/12/12 11:06:28;;;;;;;98.75;29.75;;;7.90;99.90;;;;;;5068305;28;20040;-58
2021/12/12 11:09:01;;;;;;;98.65;28.77;;;7.90;99.90;;;;;;5072063;28;20135;-58
2021/12/12 11:11:39;;;;;;;98.40;28.30;;;7.90;99.90;;;;;;5071375;28;20472;-58
2021/12/12 11:14:16;;;;;;;91.13;28.02;;;8.00;99.90;;;;;;5067596;28;20121;-57
2021/12/12 11:16:55;;;;;;;109.25;30.60;;;8.00;99.90;;;;;;5067643;28;20162;-58
2021/12/12 11:19:42;;;;;;;108.38;30.00;;;8.00;99.90;;;;;;5068431;28;20044;-58
2021/12/12 11:22:15;;;;;;;95.75;29.67;;;8.10;99.90;;;;;;5053827;28;20099;-58
2021/12/12 11:24:47;;;;;;;95.55;29.02;;;8.10;99.90;;;;;;5071635;28;20040;-58
2021/12/12 11:27:19;;;;;;;92.85;29.63;;;8.10;99.90;;;;;;5071515;28;20044;-58
2021/12/12 11:29:57;;;;;;;103.47;29.83;;;8.20;99.90;;;;;;5078141;28;20036;-58
2021/12/12 11:32:33;;;;;;;100.32;27.98;;;8.20;99.90;;;;;;5068868;28;21966;-58
2021/12/12 11:35:00;;;;;;;99.55;29.20;;;8.20;99.90;;;;;;5071936;28;20047;-58
2021/12/12 11:37:43;;;;;;;87.88;27.45;;;8.20;99.90;;;;;;5071555;28;20198;-58
2021/12/12 11:40:19;;;;;;;99.63;28.65;;;8.20;99.90;;;;;;5069910;28;20135;-58
2021/12/12 11:42:56;;;;;;;99.68;28.02;;;8.20;99.90;;;;;;5071634;28;20054;-58
2021/12/12 11:45:27;;;;;;;107.43;28.02;;;8.30;99.90;;;;;;5072323;28;20044;-59
2021/12/12 11:48:03;;;;;;;96.88;27.77;;;8.30;99.90;;;;;;5076043;28;20482;-58
2021/12/12 11:50:36;;;;;;;89.28;27.05;;;8.40;99.90;;;;;;5079152;28;20044;-58
2021/12/12 11:53:11;;;;;;;82.57;26.70;;;8.40;99.90;;;;;;5069184;28;20630;-58
2021/12/12 11:55:54;;;;;;;86.97;26.02;;;8.50;99.90;;;;;;5071643;28;20710;-58
2021/12/12 11:58:48;;;;;;;81.22;26.25;;;8.50;99.90;;;;;;5054912;28;20122;-58
2021/12/12 12:01:21;;;;;;;70.38;24.73;;;8.50;99.90;;;;;;5087557;28;20044;-58
2021/12/12 12:04:06;;;;;;;84.65;26.52;;;8.50;99.90;;;;;;5109853;28;20035;-58
2021/12/12 12:06:48;;;;;;;88.43;26.27;;;8.50;99.90;;;;;;5101439;28;20044;-58
2021/12/12 12:09:36;;;;;;;81.72;25.88;;;8.50;99.90;;;;;;5107670;28;20052;-58
2021/12/12 12:12:05;;;;;;;88.70;28.02;;;8.60;99.90;;;;;;5107470;28;20105;-58
2021/12/12 12:15:08;;;;;;;78.65;26.98;;;8.60;99.90;;;;;;5106639;28;20048;-58
2021/12/12 12:17:37;;;;;;;79.53;26.67;;;8.60;99.90;;;;;;5110292;28;20036;-59
2021/12/12 12:20:23;;;;;;;86.07;26.88;;;8.60;99.90;;;;;;5108683;28;20035;-58
2021/12/12 12:23:11;;;;;;;99.00;29.10;;;8.60;99.90;;;;;;5110761;28;20035;-58
2021/12/12 12:28:47;;;;;;;99.00;30.00;;;8.70;99.90;;;;;;5106525;28;20138;-58
2021/12/12 12:31:58;;;;;;;101.15;32.03;;;8.70;99.90;;;;;;5106452;28;20395;-57
2021/12/12 12:35:00;;;;;;;107.90;30.88;;;8.70;99.90;;;;;;5080983;28;20043;-59
2021/12/12 12:38:03;;;;;;;107.18;33.45;;;8.70;99.90;;;;;;5109646;28;20041;-59
2021/12/12 12:40:54;;;;;;;104.60;32.53;;;8.80;99.90;;;;;;5075996;28;20040;-59
2021/12/12 12:44:13;;;;;;;106.70;32.78;;;8.80;99.90;;;;;;5070363;28;20043;-58
2021/12/12 12:47:30;;;;;;;109.15;33.35;;;8.80;99.90;;;;;;5069828;28;20040;-59
2021/12/12 12:50:26;;;;;;;103.60;32.75;;;8.90;99.90;;;;;;5036195;28;20545;-58
2021/12/12 12:53:27;;;;;;;104.70;33.15;;;8.90;99.90;;;;;;5070628;28;20040;-58
2021/12/12 12:56:15;;;;;;;122.28;35.55;;;9.00;99.90;;;;;;5070471;28;20385;-58
2021/12/12 12:59:09;;;;;;;114.57;34.30;;;9.00;99.90;;;;;;5072223;28;20126;-58
2021/12/12 13:01:37;;;;;;;108.65;33.75;;;9.00;99.90;;;;;;5070191;28;20047;-58
2021/12/12 13:04:30;;;;;;;109.22;34.95;;;9.00;99.90;;;;;;5070807;28;20686;-58
2021/12/12 13:07:09;;;;;;;114.95;35.50;;;9.00;99.90;;;;;;5071586;28;20036;-58
2021/12/12 13:09:52;;;;;;;118.90;36.17;;;9.00;99.90;;;;;;5050905;28;20044;-58
2021/12/12 13:12:36;;;;;;;120.35;36.80;;;9.00;99.90;;;;;;5069657;28;20040;-58
2021/12/12 13:15:17;;;;;;;128.73;35.33;;;9.00;99.90;;;;;;5072280;28;20119;-58
2021/12/12 13:17:56;;;;;;;113.50;34.78;;;9.00;99.90;;;;;;5072151;28;20040;-58
2021/12/12 13:20:34;;;;;;;106.97;34.67;;;9.00;99.90;;;;;;5072670;28;20052;-58
2021/12/12 13:23:18;;;;;;;116.38;35.35;;;9.10;99.90;;;;;;5070452;28;20406;-58
2021/12/12 13:25:52;;;;;;;109.95;34.70;;;9.00;99.90;;;;;;5070987;28;20047;-58
2021/12/12 13:28:28;;;;;;;114.60;36.17;;;9.00;99.90;;;;;;5071386;28;20072;-59
2021/12/12 13:31:16;;;;;;;111.88;34.75;;;9.00;99.90;;;;;;5066955;28;20051;-58
2021/12/12 13:33:57;;;;;;;118.53;34.58;;;9.00;99.90;;;;;;5076208;28;20135;-59